Time;durP1;ratioP1;P1;durP2;ratioP2;P2;SDS_P1;SDS_P2;PMS_P1;PMS_P2;Temp;Humidity;BMP_temperature;BMP_pressure;BME280_temperature;BME280_humidity;BME280_pressure;Samples;Min_cycle;Max_cycle;Signal;HPM_P1;HPM_P2
2022/12/10 00:01:24;;;;;;;133.40;56.55;;;;;;;1.49;81.04;99323.11;2047232;86;31037;-67
2022/12/10 00:04:26;;;;;;;129.93;53.75;;;;;;;1.49;81.12;99311.23;2047113;86;33747;-65
2022/12/10 00:07:28;;;;;;;142.50;56.75;;;;;;;1.47;81.01;99313.04;2047142;86;29536;-67
2022/12/10 00:10:29;;;;;;;137.72;57.58;;;;;;;1.47;81.07;99322.75;2047138;86;27727;-65
2022/12/10 00:13:32;;;;;;;134.95;55.17;;;;;;;1.47;81.10;99318.32;2042882;86;29612;-66
2022/12/10 00:16:34;;;;;;;133.40;53.52;;;;;;;1.47;81.12;99318.32;2046918;86;31873;-64
2022/12/10 00:19:35;;;;;;;139.95;56.48;;;;;;;1.48;81.18;99319.20;2032870;86;33027;-65
2022/12/10 00:22:37;;;;;;;126.87;53.15;;;;;;;1.46;81.12;99313.09;2011764;87;29941;-65
2022/12/10 00:25:39;;;;;;;125.33;51.48;;;;;;;1.47;81.23;99313.52;2046396;86;27698;-66
2022/12/10 00:28:42;;;;;;;135.05;55.92;;;;;;;1.47;81.36;99313.52;2060318;86;28669;-69
2022/12/10 00:31:43;;;;;;;131.65;54.90;;;;;;;1.47;81.21;99317.47;2060525;86;31426;-67
2022/12/10 00:34:45;;;;;;;147.62;58.20;;;;;;;1.45;81.20;99308.73;2061575;86;33150;-67
2022/12/10 00:37:46;;;;;;;136.82;56.55;;;;;;;1.41;81.15;99305.75;2061876;86;29341;-67
2022/12/10 00:40:48;;;;;;;151.22;61.98;;;;;;;1.41;81.21;99308.39;2061787;86;28329;-66
2022/12/10 00:43:50;;;;;;;130.03;53.73;;;;;;;1.43;81.28;99310.07;2056515;86;28639;-66
2022/12/10 00:46:51;;;;;;;136.82;56.77;;;;;;;1.45;81.36;99310.05;2053962;86;31036;-66
2022/12/10 00:49:53;;;;;;;128.97;52.73;;;;;;;1.45;81.23;99312.22;2076451;85;33623;-67
2022/12/10 00:52:54;;;;;;;135.03;52.88;;;;;;;1.46;81.39;99315.73;2076770;85;29362;-65
2022/12/10 00:55:58;;;;;;;133.35;52.93;;;;;;;1.41;81.45;99310.56;2076892;85;27586;-65
2022/12/10 00:59:01;;;;;;;133.45;53.52;;;;;;;1.39;81.34;99313.73;2076687;85;28094;-66
2022/12/10 01:02:03;;;;;;;131.63;54.30;;;;;;;1.34;81.43;99304.59;2076506;85;31777;-66
2022/12/10 01:05:05;;;;;;;136.07;54.58;;;;;;;1.34;81.53;99306.38;2076292;85;34126;-67
2022/12/10 01:08:07;;;;;;;123.67;51.02;;;;;;;1.33;81.81;99313.89;2076637;85;29460;-66
2022/12/10 01:11:10;;;;;;;131.40;49.75;;;;;;;1.33;81.54;99309.93;2076547;85;27712;-65
2022/12/10 01:14:19;;;;;;;126.12;50.52;;;;;;;1.32;81.69;99300.28;2075346;85;28662;-68
2022/12/10 01:17:21;;;;;;;127.58;52.83;;;;;;;1.33;81.75;99308.61;2076940;85;31201;-65
2022/12/10 01:20:23;;;;;;;132.90;53.17;;;;;;;1.32;81.65;99309.08;2076788;85;33720;-68
2022/12/10 01:23:24;;;;;;;137.43;50.90;;;;;;;1.32;81.63;99314.80;2076552;85;30187;-64
2022/12/10 01:26:30;;;;;;;133.67;52.13;;;;;;;1.35;81.65;99316.88;2076701;85;27712;-68
2022/12/10 01:29:32;;;;;;;133.82;51.68;;;;;;;1.39;81.66;99316.80;2076568;85;29499;-66
2022/12/10 01:32:34;;;;;;;122.05;47.65;;;;;;;1.44;81.67;99313.13;2076523;85;31043;-67
2022/12/10 01:35:38;;;;;;;129.75;51.02;;;;;;;1.44;81.61;99320.19;2076734;85;33614;-67
2022/12/10 01:38:40;;;;;;;129.12;52.27;;;;;;;1.41;81.56;99320.27;2076803;85;36770;-67
2022/12/10 01:41:55;;;;;;;127.05;52.88;;;;;;;1.44;81.63;99325.00;2076575;85;27729;-68
2022/12/10 01:45:00;;;;;;;;;;;;;;;1.47;81.60;99326.70;2043379;87;28689;-65
2022/12/10 01:48:02;;;;;;;123.05;50.17;;;;;;;1.46;81.53;99320.55;2039151;87;31079;-69
2022/12/10 01:51:03;;;;;;;130.70;51.23;;;;;;;1.44;81.49;99321.04;2040068;85;33092;-68
2022/12/10 01:54:10;;;;;;;126.02;50.35;;;;;;;1.47;81.54;99326.23;2068219;85;29360;-67
2022/12/10 01:57:16;;;;;;;141.00;54.13;;;;;;;1.47;81.55;99324.92;2068219;85;27602;-65
2022/12/10 02:00:18;;;;;;;143.75;54.98;;;;;;;1.49;81.50;99322.25;2067989;85;28676;-68
2022/12/10 02:03:34;;;;;;;125.80;50.90;;;;;;;1.51;81.50;99324.38;2068147;86;31019;-67
2022/12/10 02:06:47;;;;;;;121.33;48.63;;;;;;;1.53;81.47;99309.83;2033382;87;33019;-68
2022/12/10 02:10:05;;;;;;;113.72;45.75;;;;;;;1.53;81.39;99308.04;2033458;87;29835;-67
2022/12/10 02:13:33;;;;;;;114.30;44.30;;;;;;;1.51;81.51;99313.38;2033662;87;27725;-62
2022/12/10 02:16:42;;;;;;;113.52;48.00;;;;;;;1.50;81.47;99316.03;2034047;87;29082;-65
2022/12/10 02:20:01;;;;;;;124.07;50.50;;;;;;;1.48;81.42;99314.77;2033823;87;31058;-66
2022/12/10 02:23:07;;;;;;;123.90;48.35;;;;;;;1.47;81.44;99317.00;2015568;87;33463;-67
2022/12/10 02:26:26;;;;;;;118.02;49.85;;;;;;;1.47;81.52;99319.64;1986392;89;29347;-67
2022/12/10 02:29:29;;;;;;;122.40;48.35;;;;;;;1.47;81.44;99320.11;1986653;89;27749;-67
2022/12/10 02:32:41;;;;;;;134.63;52.08;;;;;;;1.47;81.48;99322.75;1986454;89;28674;-67
2022/12/10 02:35:44;;;;;;;139.57;51.90;;;;;;;1.43;81.50;99317.98;1986251;89;31055;-64
2022/12/10 02:38:48;;;;;;;136.52;51.05;;;;;;;1.42;81.48;99318.05;1986163;89;33062;-67
2022/12/10 02:41:53;;;;;;;121.67;47.43;;;;;;;1.43;81.58;99321.09;1986118;89;28773;-63
2022/12/10 02:44:57;;;;;;;136.40;49.93;;;;;;;1.45;81.77;99320.61;2012896;88;28249;-67
2022/12/10 02:48:00;;;;;;;115.08;46.35;;;;;;;1.41;81.66;99322.91;2010002;88;28679;-66
2022/12/10 02:51:02;;;;;;;138.65;50.85;;;;;;;1.40;81.76;99329.97;1994256;89;31910;-66
2022/12/10 02:54:06;;;;;;;129.05;48.10;;;;;;;1.36;81.99;99329.64;2030333;87;32988;-67
2022/12/10 02:57:29;;;;;;;131.60;51.18;;;;;;;1.34;81.78;99328.34;2053894;86;28742;-66
2022/12/10 03:00:39;;;;;;;130.70;49.77;;;;;;;1.33;81.72;99333.67;2064125;86;28013;-66
2022/12/10 03:04:03;;;;;;;132.60;49.88;;;;;;;1.32;81.76;99339.86;2063984;86;29385;-63
2022/12/10 03:07:12;;;;;;;146.30;52.33;;;;;;;1.27;81.99;99342.62;2063708;86;32173;-63
2022/12/10 03:10:44;;;;;;;131.70;49.08;;;;;;;1.26;81.86;99340.02;2063873;86;32959;-63
2022/12/10 03:14:10;;;;;;;122.67;48.50;;;;;;;1.27;81.94;99337.79;2064110;86;29532;-66
2022/12/10 03:17:14;;;;;;;122.13;48.38;;;;;;;1.24;82.07;99342.70;2064570;86;27650;-66
2022/12/10 03:20:16;;;;;;;129.55;50.20;;;;;;;1.24;82.18;99345.81;2063969;86;30075;-67
2022/12/10 03:23:19;;;;;;;115.72;46.18;;;;;;;1.24;81.95;99342.70;2064011;86;31410;-63
2022/12/10 03:26:22;;;;;;;114.12;43.70;;;;;;;1.23;81.95;99344.08;2065321;86;32971;-65
2022/12/10 03:29:35;;;;;;;114.92;44.73;;;;;;;1.23;81.89;99342.30;2063992;86;29343;-64
2022/12/10 03:32:37;;;;;;;113.68;45.30;;;;;;;1.23;81.76;99342.77;2064343;86;27611;-62
2022/12/10 03:35:39;;;;;;;114.82;46.25;;;;;;;1.21;81.69;99342.34;2064162;86;28737;-63
2022/12/10 03:38:42;;;;;;;108.87;43.02;;;;;;;1.21;81.68;99346.30;2064038;86;31931;-64
2022/12/10 03:41:43;;;;;;;109.52;45.85;;;;;;;1.24;81.68;99345.81;2063897;86;33776;-66
2022/12/10 03:44:45;;;;;;;105.95;45.05;;;;;;;1.27;81.71;99350.98;2064172;86;29321;-65
2022/12/10 03:47:49;;;;;;;98.05;41.45;;;;;;;1.26;81.57;99346.17;2063795;86;27629;-64
2022/12/10 03:50:50;;;;;;;107.85;42.53;;;;;;;1.26;81.53;99347.93;2061577;86;28730;-66
2022/12/10 03:53:52;;;;;;;108.75;43.60;;;;;;;1.24;81.51;99340.53;2060568;86;30867;-68
2022/12/10 03:56:54;;;;;;;105.70;42.93;;;;;;;1.24;81.45;99342.70;2061662;86;32786;-65
2022/12/10 03:59:55;;;;;;;102.25;43.00;;;;;;;1.25;81.44;99344.44;2061797;86;29339;-66
2022/12/10 04:02:57;;;;;;;98.75;41.25;;;;;;;1.24;81.36;99344.03;2061357;86;27685;-62
2022/12/10 04:06:05;;;;;;;99.32;42.03;;;;;;;1.23;81.34;99344.93;2061824;86;28124;-63
2022/12/10 04:09:09;;;;;;;89.22;39.78;;;;;;;1.24;81.36;99350.63;2061369;86;31346;-63
2022/12/10 04:12:10;;;;;;;103.17;42.93;;;;;;;1.22;81.31;99349.80;2061619;86;33329;-67
2022/12/10 04:18:32;;;;;;;99.92;41.55;;;;;;;1.24;81.34;99361.64;2061613;86;27570;-64
2022/12/10 04:28:09;;;;;;;91.53;41.37;;;;;;;1.22;81.26;99370.90;2061651;86;33746;-67
2022/12/10 04:31:11;;;;;;;92.90;41.08;;;;;;;1.23;81.15;99375.73;2061713;85;29373;-67
2022/12/10 04:34:13;;;;;;;96.78;42.78;;;;;;;1.23;81.11;99371.78;2061956;86;27685;-64
2022/12/10 04:37:15;;;;;;;81.63;35.85;;;;;;;1.25;81.15;99373.46;2061698;86;28657;-67
2022/12/10 04:40:17;;;;;;;86.32;37.53;;;;;;;1.26;81.05;99369.03;2061693;86;31028;-66
2022/12/10 04:43:18;;;;;;;76.30;37.75;;;;;;;1.23;80.93;99376.59;2061144;86;33025;-64
2022/12/10 04:46:20;;;;;;;82.82;39.78;;;;;;;1.21;80.95;99375.33;2061624;86;29341;-64
2022/12/10 04:49:22;;;;;;;91.70;41.77;;;;;;;1.23;81.02;99374.42;2062749;85;27790;-64
2022/12/10 04:52:24;;;;;;;85.03;38.10;;;;;;;1.24;81.01;99373.05;2064150;86;28699;-64
2022/12/10 04:55:25;;;;;;;82.82;37.10;;;;;;;1.24;80.83;99377.47;2064027;86;31082;-68
2022/12/10 04:58:30;;;;;;;79.32;36.35;;;;;;;1.23;80.88;99377.91;2064157;86;33533;-64
2022/12/10 05:01:33;;;;;;;;;;;;;;;1.25;80.90;99381.81;2066500;86;30325;-66
2022/12/10 05:04:34;;;;;;;84.47;37.53;;;;;;;1.23;80.80;99394.20;2026849;87;27673;-64
2022/12/10 05:07:36;;;;;;;80.15;37.33;;;;;;;1.19;80.86;99396.03;2063932;86;28867;-64
2022/12/10 05:10:38;;;;;;;84.55;38.80;;;;;;;1.18;80.83;99389.91;2063855;86;31042;-67
2022/12/10 05:13:40;;;;;;;86.67;38.58;;;;;;;1.17;80.76;99384.66;2059901;86;32963;-64
2022/12/10 05:16:42;;;;;;;84.52;39.03;;;;;;;1.17;80.81;99381.58;2058625;86;29445;-66
2022/12/10 05:19:43;;;;;;;79.97;36.88;;;;;;;1.19;80.89;99378.45;2059212;86;27619;-65
2022/12/10 05:26:16;;;;;;;74.17;34.78;;;;;;;1.19;80.71;99380.20;2058637;86;31137;-65
2022/12/10 05:29:18;;;;;;;74.85;36.30;;;;;;;1.17;80.58;99386.86;2058718;86;32957;-64
2022/12/10 05:32:20;;;;;;;76.33;36.77;;;;;;;1.15;80.66;99395.26;2059044;86;29377;-67
2022/12/10 05:35:21;;;;;;;81.37;38.05;;;;;;;1.15;80.53;99403.64;2059112;85;27732;-67
2022/12/10 05:38:23;;;;;;;81.92;39.25;;;;;;;1.14;80.60;99401.44;2059196;86;28698;-68
2022/12/10 05:41:28;;;;;;;80.67;37.13;;;;;;;1.13;80.61;99401.02;2058962;86;31085;-64
2022/12/10 05:44:30;;;;;;;81.02;37.78;;;;;;;1.15;80.66;99399.68;2059086;86;33007;-63
2022/12/10 05:47:31;;;;;;;78.90;37.70;;;;;;;1.15;80.60;99398.36;2059062;86;29338;-64
2022/12/10 05:50:33;;;;;;;88.47;39.50;;;;;;;1.15;80.59;99405.81;2058699;85;27717;-64
2022/12/10 05:53:35;;;;;;;81.72;38.30;;;;;;;1.12;80.52;99410.30;2059085;86;28808;-68
2022/12/10 05:56:37;;;;;;;87.37;39.63;;;;;;;1.11;80.60;99404.61;2058967;86;31824;-65
2022/12/10 05:59:39;;;;;;;85.85;40.73;;;;;;;1.11;80.58;99401.98;2059050;86;32993;-62
2022/12/10 06:02:40;;;;;;;87.75;40.85;;;;;;;1.13;80.64;99405.45;2059068;86;29321;-63
2022/12/10 06:05:42;;;;;;;84.07;40.05;;;;;;;1.13;80.63;99406.30;2059172;86;27725;-67
2022/12/10 06:08:44;;;;;;;80.10;39.27;;;;;;;1.15;80.64;99411.55;2058910;86;28651;-64
2022/12/10 06:11:45;;;;;;;87.57;41.18;;;;;;;1.14;80.54;99400.59;2059794;86;31043;-62
2022/12/10 06:14:48;;;;;;;95.85;42.17;;;;;;;1.13;80.49;99409.41;2059156;86;32979;-64
2022/12/10 06:17:49;;;;;;;84.00;41.60;;;;;;;1.14;80.55;99413.77;2058980;86;29387;-63
2022/12/10 06:20:51;;;;;;;94.72;43.87;;;;;;;1.12;80.47;99412.94;2059086;86;27625;-63
2022/12/10 06:23:53;;;;;;;94.25;44.27;;;;;;;1.09;80.51;99413.02;2059074;86;28657;-67
2022/12/10 06:26:54;;;;;;;87.20;43.08;;;;;;;1.09;80.62;99407.27;2058912;86;31021;-67
2022/12/10 06:29:56;;;;;;;85.53;40.45;;;;;;;1.10;80.57;99406.84;2059012;86;33054;-65
2022/12/10 06:32:58;;;;;;;95.77;46.58;;;;;;;1.06;80.56;99406.05;2059052;86;29740;-63
2022/12/10 06:35:59;;;;;;;96.15;48.38;;;;;;;1.02;80.55;99413.16;2059039;86;27737;-64
2022/12/10 06:39:01;;;;;;;93.82;46.68;;;;;;;1.00;80.66;99410.16;2058956;86;29463;-64
2022/12/10 06:42:02;;;;;;;91.65;45.98;;;;;;;1.00;80.67;99420.70;2058901;86;31859;-66
2022/12/10 06:45:05;;;;;;;95.10;45.92;;;;;;;0.97;80.64;99412.86;2058937;86;32996;-66
2022/12/10 06:48:07;;;;;;;93.95;44.67;;;;;;;0.94;80.80;99411.61;2058962;86;30116;-66
2022/12/10 06:51:11;;;;;;;103.00;48.35;;;;;;;0.89;80.84;99402.06;2054950;86;27721;-63
2022/12/10 06:54:12;;;;;;;111.72;52.00;;;;;;;0.86;80.85;99397.30;2068772;86;28695;-65
2022/12/10 06:57:14;;;;;;;100.55;48.40;;;;;;;0.86;80.92;99403.89;2069013;86;31735;-63
2022/12/10 07:00:16;;;;;;;91.60;46.70;;;;;;;0.83;81.06;99406.16;2068870;86;32950;-63
2022/12/10 07:03:18;;;;;;;175.18;84.62;;;;;;;0.84;80.98;99408.33;2068882;86;29329;-63
2022/12/10 07:06:19;;;;;;;92.22;46.28;;;;;;;0.86;81.00;99413.12;2068857;86;27752;-63
2022/12/10 07:09:21;;;;;;;89.42;43.23;;;;;;;0.87;81.06;99422.33;2068789;86;28644;-65
2022/12/10 07:12:23;;;;;;;93.12;45.05;;;;;;;0.87;80.97;99420.13;2070139;85;31034;-63
2022/12/10 07:15:24;;;;;;;87.27;42.78;;;;;;;0.86;80.92;99428.50;2069080;86;32980;-64
2022/12/10 07:18:27;;;;;;;96.45;44.23;;;;;;;0.85;80.91;99436.43;2068773;86;29401;-63
2022/12/10 07:21:34;;;;;;;90.65;45.12;;;;;;;0.84;80.85;99431.63;2068955;85;27631;-67
2022/12/10 07:24:35;;;;;;;83.85;43.02;;;;;;;0.87;80.94;99435.95;2068642;86;28849;-63
2022/12/10 07:27:37;;;;;;;90.42;43.50;;;;;;;0.86;80.81;99435.53;2068867;86;31013;-64
2022/12/10 07:30:39;;;;;;;90.07;45.48;;;;;;;0.89;80.87;99438.09;2068631;86;32950;-67
2022/12/10 07:33:40;;;;;;;104.00;49.40;;;;;;;0.88;80.71;99441.20;2068752;86;29303;-63
2022/12/10 07:36:42;;;;;;;91.78;44.13;;;;;;;0.85;80.65;99441.70;2068966;86;27649;-63
2022/12/10 07:39:44;;;;;;;91.25;44.88;;;;;;;0.83;80.69;99438.27;2068757;86;28604;-67
2022/12/10 07:42:45;;;;;;;90.55;45.95;;;;;;;0.83;80.74;99444.86;2069180;85;31023;-63
2022/12/10 07:45:47;;;;;;;97.45;48.15;;;;;;;0.81;80.68;99440.06;2069044;86;33768;-68
2022/12/10 07:48:49;;;;;;;90.35;45.75;;;;;;;0.80;80.69;99436.55;2068999;86;30402;-64
2022/12/10 07:51:51;;;;;;;81.02;41.75;;;;;;;0.83;80.82;99431.67;2064292;86;27713;-66
2022/12/10 07:54:53;;;;;;;83.33;43.68;;;;;;;0.84;80.77;99434.27;2059103;86;28708;-66
2022/12/10 07:57:54;;;;;;;72.92;37.33;;;;;;;0.85;80.71;99440.39;2059164;86;31009;-66
2022/12/10 08:00:56;;;;;;;80.07;39.45;;;;;;;0.84;80.70;99445.23;2059039;86;33741;-66
2022/12/10 08:03:57;;;;;;;77.87;39.63;;;;;;;0.83;80.64;99452.30;2059264;86;29319;-64
2022/12/10 08:06:59;;;;;;;82.75;42.10;;;;;;;0.80;80.65;99449.73;2059173;86;27762;-64
2022/12/10 08:10:00;;;;;;;78.52;40.10;;;;;;;0.84;80.78;99465.02;2059040;86;28735;-63
2022/12/10 08:13:03;;;;;;;88.70;42.98;;;;;;;0.82;80.64;99462.89;2062709;86;31079;-64
2022/12/10 08:16:17;;;;;;;74.80;39.92;;;;;;;0.84;80.79;99465.02;2064053;86;32974;-64
2022/12/10 08:19:19;;;;;;;73.75;39.35;;;;;;;0.89;80.83;99466.67;2064347;86;29500;-64
2022/12/10 08:22:22;;;;;;;84.45;43.50;;;;;;;0.95;80.79;99466.09;2064821;86;27670;-64
2022/12/10 08:25:23;;;;;;;85.50;47.03;;;;;;;0.99;80.81;99470.39;2064107;86;28097;-67
2022/12/10 08:28:25;;;;;;;84.80;46.35;;;;;;;1.01;80.58;99468.59;2063764;86;32175;-64
2022/12/10 08:31:27;;;;;;;75.28;41.20;;;;;;;1.00;80.54;99461.11;2064136;86;33646;-64
2022/12/10 08:34:29;;;;;;;84.07;43.00;;;;;;;1.03;80.63;99472.06;2064043;86;29335;-63
2022/12/10 08:37:31;;;;;;;81.55;43.52;;;;;;;1.04;80.47;99471.16;2064241;86;27722;-65
2022/12/10 08:40:32;;;;;;;75.37;40.17;;;;;;;1.02;80.43;99474.28;2063954;86;28640;-66
2022/12/10 08:43:34;;;;;;;86.12;43.30;;;;;;;1.01;80.44;99472.08;2064182;85;31023;-66
2022/12/10 08:46:36;;;;;;;98.52;51.68;;;;;;;1.01;80.55;99472.55;2064092;86;33811;-65
2022/12/10 08:49:37;;;;;;;78.92;41.10;;;;;;;1.07;80.65;99476.37;2060978;85;29309;-64
2022/12/10 08:52:39;;;;;;;75.17;39.73;;;;;;;1.04;80.28;99474.65;2044708;87;27710;-66
2022/12/10 08:55:41;;;;;;;77.00;40.92;;;;;;;1.04;80.29;99481.71;2009985;88;28704;-67
2022/12/10 08:58:42;;;;;;;85.07;42.95;;;;;;;1.03;80.26;99478.19;2044358;86;31920;-66
2022/12/10 09:01:44;;;;;;;78.42;40.83;;;;;;;1.04;80.32;99477.75;2044438;87;32947;-66
2022/12/10 09:04:46;;;;;;;122.53;64.87;;;;;;;1.02;80.12;99472.96;2044471;86;29324;-64
2022/12/10 09:07:47;;;;;;;94.45;49.13;;;;;;;1.00;80.20;99480.04;2010037;87;27790;-67
2022/12/10 09:10:49;;;;;;;91.90;45.17;;;;;;;1.00;80.18;99474.77;2044300;86;29457;-66
2022/12/10 09:13:50;;;;;;;80.57;39.03;;;;;;;0.99;80.20;99480.51;2044616;86;31027;-64
2022/12/10 09:16:52;;;;;;;78.07;39.80;;;;;;;1.00;80.30;99474.77;2044594;86;32986;-65
2022/12/10 09:19:54;;;;;;;76.62;39.58;;;;;;;1.02;80.32;99471.64;2009871;88;30380;-63
2022/12/10 09:22:55;;;;;;;75.52;39.73;;;;;;;1.04;80.30;99473.80;2044300;87;27731;-66
2022/12/10 09:25:57;;;;;;;84.13;42.35;;;;;;;1.05;80.24;99472.43;2044251;87;29912;-64
2022/12/10 09:28:59;;;;;;;77.00;40.03;;;;;;;1.03;80.28;99459.73;2044453;87;31837;-63
2022/12/10 09:32:01;;;;;;;86.92;42.13;;;;;;;1.08;80.42;99458.29;2009701;88;33768;-65
2022/12/10 09:35:03;;;;;;;95.87;44.58;;;;;;;1.15;80.45;99465.63;2044634;87;29295;-64
2022/12/10 09:38:05;;;;;;;88.17;46.58;;;;;;;1.18;80.35;99458.50;2044266;86;27624;-64
2022/12/10 09:41:18;;;;;;;80.32;43.83;;;;;;;1.24;80.33;99464.53;2044361;87;28656;-64
2022/12/10 09:44:50;;;;;;;81.92;41.15;;;;;;;1.27;80.29;99460.04;2009815;88;32227;-64
2022/12/10 09:48:23;;;;;;;82.53;41.10;;;;;;;1.32;80.17;99463.44;2044338;87;33037;-64
2022/12/10 09:51:32;;;;;;;74.37;39.50;;;;;;;1.38;80.19;99469.02;2027934;86;30118;-64
2022/12/10 09:54:47;;;;;;;79.10;41.50;;;;;;;1.38;79.88;99466.38;1988110;89;27728;-65
2022/12/10 09:57:50;;;;;;;75.62;42.05;;;;;;;1.38;80.16;99462.84;2008543;87;28676;-64
2022/12/10 10:01:04;;;;;;;79.85;42.33;;;;;;;1.43;80.13;99457.01;1994082;89;31750;-64
2022/12/10 10:04:06;;;;;;;84.97;43.37;;;;;;;1.44;79.99;99453.00;2024316;87;32954;-64
2022/12/10 10:07:13;;;;;;;78.90;41.83;;;;;;;1.51;80.15;99451.06;2026676;87;29676;-65
2022/12/10 10:10:37;;;;;;;140.50;80.77;;;;;;;1.55;79.96;99447.44;1998710;89;27736;-65
2022/12/10 10:13:45;;;;;;;87.50;45.98;;;;;;;1.59;79.96;99444.26;1976779;90;29500;-64
2022/12/10 10:16:58;;;;;;;79.58;42.45;;;;;;;1.62;79.92;99432.30;1947160;91;32005;-66
2022/12/10 10:19:59;;;;;;;82.70;42.95;;;;;;;1.62;79.50;99426.59;1946559;90;33868;-65
2022/12/10 10:23:01;;;;;;;74.40;41.65;;;;;;;1.62;79.48;99434.94;1947616;91;29323;-66
2022/12/10 10:26:03;;;;;;;83.40;43.23;;;;;;;1.59;79.31;99434.58;1955647;90;27646;-64
2022/12/10 10:29:11;;;;;;;79.62;41.25;;;;;;;1.55;79.26;99434.24;1947600;91;28646;-65
2022/12/10 10:32:23;;;;;;;78.97;42.80;;;;;;;1.53;79.32;99424.17;1947422;91;30891;-64
2022/12/10 10:35:32;;;;;;;71.77;36.80;;;;;;;1.57;79.50;99417.06;1947014;91;32894;-66
2022/12/10 10:38:33;;;;;;;70.05;38.23;;;;;;;1.62;79.14;99423.95;1992365;89;30111;-66
2022/12/10 10:41:39;;;;;;;82.22;43.63;;;;;;;1.61;79.08;99421.33;1998764;89;27720;-66
2022/12/10 10:44:42;;;;;;;79.65;44.98;;;;;;;1.62;79.39;99418.66;1998565;89;28656;-67
2022/12/10 10:47:44;;;;;;;73.57;39.90;;;;;;;1.65;79.27;99419.02;1996537;88;31678;-63
2022/12/10 10:50:52;;;;;;;66.25;36.17;;;;;;;1.68;79.24;99420.27;2000223;87;33951;-65
2022/12/10 10:53:55;;;;;;;70.78;39.10;;;;;;;1.69;79.02;99425.08;2049106;86;29386;-65
2022/12/10 10:56:57;;;;;;;68.55;39.35;;;;;;;1.68;79.09;99413.66;2013374;88;27908;-66
2022/12/10 11:00:06;;;;;;;66.00;36.65;;;;;;;1.72;79.08;99409.16;2035276;86;28720;-62
2022/12/10 11:03:08;;;;;;;68.28;37.53;;;;;;;1.70;78.63;99409.22;2063022;86;31038;-65
2022/12/10 11:06:11;;;;;;;73.17;38.38;;;;;;;1.74;78.99;99401.59;2047356;86;34188;-62
2022/12/10 11:09:21;;;;;;;73.65;40.30;;;;;;;1.77;78.81;99404.63;2009937;87;29270;-64
2022/12/10 11:12:36;;;;;;;67.95;37.48;;;;;;;1.76;78.61;99411.66;2030165;87;27608;-62
2022/12/10 11:15:40;;;;;;;79.53;40.90;;;;;;;1.78;78.59;99412.49;2030518;87;29523;-65
2022/12/10 11:18:52;;;;;;;73.07;41.13;;;;;;;1.78;78.37;99422.20;2042790;86;31118;-64
2022/12/10 11:21:54;;;;;;;75.45;41.23;;;;;;;1.78;78.29;99431.45;2026306;87;33819;-65
2022/12/10 11:24:57;;;;;;;71.92;42.65;;;;;;;1.77;78.54;99425.28;1998321;87;30447;-65
2022/12/10 11:28:20;;;;;;;65.17;38.48;;;;;;;1.82;78.71;99430.46;2040090;86;27720;-63
2022/12/10 11:32:01;;;;;;;68.20;39.30;;;;;;;1.85;78.61;99433.45;2063889;86;29383;-63
2022/12/10 11:35:15;;;;;;;78.62;42.00;;;;;;;1.88;78.38;99443.94;2063856;86;31656;-66
2022/12/10 11:38:41;;;;;;;74.50;42.58;;;;;;;1.86;78.26;99448.40;2063779;86;33027;-63
2022/12/10 11:42:00;;;;;;;72.53;40.35;;;;;;;1.88;78.40;99443.94;2063892;86;29752;-63
2022/12/10 11:45:47;;;;;;;73.22;41.60;;;;;;;1.88;78.28;99442.63;2064201;86;27712;-59
2022/12/10 11:49:09;;;;;;;89.58;48.10;;;;;;;1.86;78.19;99439.16;2064107;86;29829;-64
2022/12/10 11:52:39;;;;;;;87.20;46.23;;;;;;;1.84;78.11;99441.81;2063888;86;31484;-64
2022/12/10 11:56:22;;;;;;;76.05;42.67;;;;;;;1.84;78.23;99451.06;2063638;86;34199;-64
2022/12/10 11:59:51;;;;;;;107.85;54.42;;;;;;;1.86;78.08;99450.56;2063704;86;29422;-63
2022/12/10 12:03:37;;;;;;;81.50;43.17;;;;;;;1.80;77.93;99445.01;2063736;86;27737;-65
2022/12/10 12:06:57;;;;;;;82.57;42.93;;;;;;;1.78;77.94;99444.65;2064220;86;29110;-64
2022/12/10 12:10:20;;;;;;;79.62;41.10;;;;;;;1.81;78.24;99444.09;2060166;86;31220;-65
2022/12/10 12:13:30;;;;;;;78.02;42.05;;;;;;;1.88;78.31;99450.08;2059175;86;32978;-64
2022/12/10 12:16:46;;;;;;;87.95;46.23;;;;;;;1.89;78.08;99450.95;2058836;86;29535;-65
2022/12/10 12:19:59;;;;;;;81.57;44.60;;;;;;;;;;2058870;86;27742;-64
2022/12/10 12:23:06;;;;;;;92.97;48.20;;;;;;;1.93;77.94;99434.98;2062278;86;29039;-62
2022/12/10 12:26:33;;;;;;;93.20;50.88;;;;;;;1.93;77.92;99436.30;2058960;86;31734;-63
2022/12/10 12:29:42;;;;;;;89.58;47.15;;;;;;;1.93;77.97;99440.70;2062094;86;34141;-66
2022/12/10 12:33:06;;;;;;;80.65;44.70;;;;;;;1.94;77.86;99437.14;2058886;86;29340;-64
2022/12/10 12:36:28;;;;;;;79.40;44.33;;;;;;;1.93;77.72;99441.58;2058818;86;27834;-65
2022/12/10 12:40:16;;;;;;;83.22;45.65;;;;;;;1.90;77.67;99427.13;2059546;86;28665;-65
2022/12/10 12:43:38;;;;;;;78.80;45.08;;;;;;;1.90;77.72;99428.92;2059091;86;31034;-64
2022/12/10 12:46:44;;;;;;;81.72;44.10;;;;;;;1.92;77.93;99428.39;2059251;86;32980;-64
2022/12/10 12:49:48;;;;;;;80.15;46.60;;;;;;;1.94;77.82;99423.50;2062048;86;30102;-65
2022/12/10 12:52:59;;;;;;;85.60;48.17;;;;;;;1.96;77.77;99428.73;2055841;86;27684;-66
2022/12/10 12:56:18;;;;;;;82.70;44.60;;;;;;;1.95;77.73;99429.64;2068524;86;29971;-66
2022/12/10 12:59:54;;;;;;;85.35;45.60;;;;;;;1.97;77.69;99426.50;2068682;86;31212;-67
2022/12/10 13:03:37;;;;;;;80.47;42.95;;;;;;;1.96;77.60;99440.17;2068673;86;34033;-65
2022/12/10 13:06:30;;;;;;;78.12;42.78;;;;;;;1.95;77.32;99438.88;2060479;86;30616;-65
2022/12/10 13:09:32;;;;;;;79.97;44.10;;;;;;;1.90;77.45;99428.45;2071467;85;28184;-65
2022/12/10 13:12:52;;;;;;;83.75;45.25;;;;;;;1.90;77.52;99419.20;2076253;85;28068;-64
2022/12/10 13:15:56;;;;;;;91.63;46.53;;;;;;;1.89;77.46;99421.44;2056908;85;31160;-65
2022/12/10 13:19:20;;;;;;;89.45;48.05;;;;;;;1.89;77.51;99420.12;2056776;85;33738;-66
2022/12/10 13:22:41;;;;;;;87.22;47.93;;;;;;;1.89;77.49;99411.34;2076507;85;29409;-63
2022/12/10 13:25:55;;;;;;;80.05;45.28;;;;;;;1.91;77.53;99424.02;2076472;85;27752;-63
2022/12/10 13:29:25;;;;;;;79.70;44.15;;;;;;;1.93;77.42;99436.30;2076681;85;29093;-63
2022/12/10 13:32:36;;;;;;;84.67;44.90;;;;;;;1.92;77.31;99443.80;2072305;84;32295;-65
2022/12/10 13:35:51;;;;;;;80.38;43.60;;;;;;;1.93;77.49;99438.94;2036209;86;33382;-63
2022/12/10 13:39:11;;;;;;;92.75;49.80;;;;;;;1.92;77.30;99447.77;2016748;87;43762;-63
2022/12/10 13:45:39;;;;;;;97.20;47.85;;;;;;;1.93;77.22;99452.14;2056029;85;29566;-64
2022/12/10 13:48:43;;;;;;;98.97;52.13;;;;;;;1.94;77.31;99443.31;2064916;85;32443;-65
2022/12/10 13:52:05;;;;;;;95.80;47.38;;;;;;;1.95;77.32;99442.41;2064380;85;33351;-64
2022/12/10 13:55:27;;;;;;;92.53;49.23;;;;;;;1.97;77.29;99447.20;2063327;85;29549;-62
2022/12/10 13:58:49;;;;;;;82.88;44.10;;;;;;;1.99;77.33;99455.06;1999515;87;27702;-60
2022/12/10 14:02:35;;;;;;;78.47;43.63;;;;;;;2.00;77.16;99453.27;1965349;89;28729;-61
2022/12/10 14:05:55;;;;;;;;;;;;;;;1.93;76.84;99446.86;1966483;89;31091;-63
2022/12/10 14:09:20;;;;;;;85.28;43.58;;;;;;;1.89;76.86;99450.95;1969543;89;34258;-62
2022/12/10 14:12:37;;;;;;;77.58;41.28;;;;;;;1.84;76.94;99447.56;1944779;89;30460;-62
2022/12/10 14:15:39;;;;;;;80.53;44.25;;;;;;;1.80;76.92;99445.01;1928020;90;27775;-62
2022/12/10 14:18:51;;;;;;;85.00;46.25;;;;;;;1.78;76.97;99445.97;1946061;90;29608;-63
2022/12/10 14:21:53;;;;;;;89.85;46.95;;;;;;;1.80;77.17;99446.80;1937878;90;31070;-63
2022/12/10 14:24:59;;;;;;;90.42;48.70;;;;;;;1.81;77.09;99445.89;1943107;90;34464;-63
2022/12/10 14:28:03;;;;;;;99.30;52.03;;;;;;;1.77;77.00;99455.64;1936709;90;30980;-63
2022/12/10 14:31:08;;;;;;;90.95;47.85;;;;;;;1.78;77.16;99465.30;1942849;90;27809;-62
2022/12/10 14:34:14;;;;;;;92.53;48.17;;;;;;;1.77;77.05;99471.95;1925059;91;29112;-64
2022/12/10 14:37:18;;;;;;;101.05;51.15;;;;;;;1.75;77.02;99467.17;1995429;87;31459;-63
2022/12/10 14:40:27;;;;;;;101.72;51.25;;;;;;;1.75;77.19;99474.63;2061957;85;34169;-62
2022/12/10 14:43:37;;;;;;;107.87;54.00;;;;;;;1.73;77.05;99479.11;2059419;85;29339;-62
2022/12/10 14:46:39;;;;;;;111.35;54.00;;;;;;;1.69;77.10;99476.56;2017833;87;28292;-62